Time;durP1;ratioP1;P1;durP2;ratioP2;P2;SDS_P1;SDS_P2;PMS_P1;PMS_P2;Temp;Humidity;BMP_temperature;BMP_pressure;BME280_temperature;BME280_humidity;BME280_pressure;Samples;Min_cycle;Max_cycle;Signal;HPM_P1;HPM_P2
2021/07/06 04:31:59;;;;;;;2.33;2.23;;;16.20;99.90;;;;;;5523466;22;20531;-81
2021/07/06 04:34:24;;;;;;;2.60;2.33;;;16.30;99.90;;;;;;4976371;28;20453;-79
2021/07/06 04:36:50;;;;;;;4.30;2.20;;;16.40;99.90;;;;;;4995323;28;20199;-79
2021/07/06 04:39:16;;;;;;;1.90;1.80;;;16.40;99.90;;;;;;4994230;28;20253;-79
2021/07/06 04:41:44;;;;;;;2.77;1.77;;;16.50;99.90;;;;;;4995267;28;20438;-79
2021/07/06 04:44:10;;;;;;;2.20;2.00;;;16.70;99.90;;;;;;4997173;28;20420;-81
2021/07/06 04:46:35;;;;;;;2.50;1.90;;;16.80;99.90;;;;;;4996498;28;20411;-79
2021/07/06 04:49:01;;;;;;;1.87;1.73;;;17.00;99.90;;;;;;4996346;28;20763;-79
2021/07/06 04:51:27;;;;;;;2.33;2.23;;;17.10;99.90;;;;;;4995416;28;20226;-79
2021/07/06 04:53:52;;;;;;;2.67;2.23;;;17.20;99.90;;;;;;4995903;28;20183;-81
2021/07/06 04:56:18;;;;;;;3.10;2.00;;;17.30;99.90;;;;;;4994839;28;20214;-75
2021/07/06 04:58:43;;;;;;;3.70;1.83;;;17.50;99.90;;;;;;4993549;28;20896;-78
2021/07/06 05:01:10;;;;;;;7.10;1.73;;;17.60;99.90;;;;;;4994777;28;20200;-76
2021/07/06 05:03:37;;;;;;;2.07;1.97;;;17.80;99.90;;;;;;4993205;28;20283;-79
2021/07/06 05:06:03;;;;;;;4.43;2.03;;;18.10;99.90;;;;;;4993426;28;20411;-77
2021/07/06 05:08:28;;;;;;;2.03;1.73;;;18.50;99.90;;;;;;4992938;28;20414;-77
2021/07/06 05:10:56;;;;;;;1.90;1.80;;;18.80;99.90;;;;;;4992824;28;20553;-78
2021/07/06 05:13:24;;;;;;;2.30;2.10;;;19.00;99.90;;;;;;4992799;28;20174;-78
2021/07/06 05:15:51;;;;;;;6.80;3.60;;;19.00;99.90;;;;;;4992767;28;20485;-78
2021/07/06 05:18:16;;;;;;;4.10;2.20;;;18.90;99.90;;;;;;4992645;28;20458;-78
2021/07/06 05:20:42;;;;;;;2.43;2.30;;;18.80;99.90;;;;;;4992147;28;20418;-78
2021/07/06 05:23:07;;;;;;;2.20;1.30;;;18.70;99.90;;;;;;4992800;28;20169;-74
2021/07/06 05:25:33;;;;;;;2.13;1.70;;;18.50;99.90;;;;;;4992370;28;20183;-74
2021/07/06 05:27:58;;;;;;;2.27;2.07;;;18.60;99.90;;;;;;4975182;28;20585;-74
2021/07/06 05:30:24;;;;;;;3.10;2.10;;;19.00;99.90;;;;;;4992357;28;20214;-74
2021/07/06 05:32:49;;;;;;;3.20;1.53;;;19.70;99.90;;;;;;4993174;28;20215;-75
2021/07/06 05:35:15;;;;;;;5.83;1.97;;;20.40;99.90;;;;;;4993546;28;20673;-74
2021/07/06 05:37:41;;;;;;;1.83;1.70;;;21.00;99.90;;;;;;4992975;28;20203;-75
2021/07/06 05:40:10;;;;;;;6.00;1.83;;;21.60;99.90;;;;;;4993205;28;20285;-75
2021/07/06 05:42:37;;;;;;;9.83;3.00;;;22.10;99.90;;;;;;4992669;28;20442;-72
2021/07/06 05:45:04;;;;;;;8.67;6.13;;;22.40;99.90;;;;;;4992437;28;20845;-74
2021/07/06 05:47:34;;;;;;;4.90;3.90;;;22.70;99.90;;;;;;4991996;28;20415;-75
2021/07/06 05:49:59;;;;;;;7.37;2.80;;;22.90;99.90;;;;;;4992250;28;20417;-75
2021/07/06 05:52:27;;;;;;;1.70;1.60;;;23.10;99.90;;;;;;4991971;28;20434;-75
2021/07/06 05:54:53;;;;;;;2.70;1.80;;;23.40;99.90;;;;;;4993170;28;20252;-85
2021/07/06 05:57:18;;;;;;;1.47;1.37;;;23.70;99.90;;;;;;4993308;28;20415;-86
2021/07/06 05:59:46;;;;;;;2.03;1.57;;;23.90;99.90;;;;;;4994125;28;20223;-86
2021/07/06 06:02:12;;;;;;;2.23;1.50;;;24.10;99.90;;;;;;4992921;28;20207;-86
2021/07/06 06:04:37;;;;;;;0.90;0.90;;;24.40;99.90;;;;;;4981846;28;20935;-86
2021/07/06 06:07:03;;;;;;;4.10;1.20;;;24.60;99.90;;;;;;4987301;28;20221;-86
2021/07/06 06:09:29;;;;;;;0.90;0.90;;;24.80;99.90;;;;;;4994038;28;20175;-86
2021/07/06 06:11:54;;;;;;;3.33;1.10;;;25.00;99.90;;;;;;4992960;28;20615;-85
2021/07/06 06:14:20;;;;;;;2.73;1.23;;;25.20;99.90;;;;;;4993528;28;20183;-84
2021/07/06 06:16:45;;;;;;;1.77;0.97;;;25.20;99.90;;;;;;4996581;28;20558;-83
2021/07/06 06:19:11;;;;;;;1.10;1.00;;;25.50;99.90;;;;;;4995888;28;20266;-82
2021/07/06 06:21:36;;;;;;;5.37;1.10;;;25.60;99.90;;;;;;4995622;28;20214;-83
2021/07/06 06:24:02;;;;;;;0.93;0.90;;;25.70;99.90;;;;;;4994898;28;20171;-82
2021/07/06 06:26:27;;;;;;;1.50;0.77;;;25.80;99.90;;;;;;4995391;28;20175;-82
2021/07/06 06:28:53;;;;;;;0.80;0.80;;;25.90;99.90;;;;;;4996327;28;20180;-82
2021/07/06 06:31:18;;;;;;;1.67;1.10;;;26.00;99.90;;;;;;4999733;28;20251;-82
2021/07/06 06:33:45;;;;;;;1.43;1.10;;;26.30;99.90;;;;;;4998174;28;20187;-82
2021/07/06 06:36:11;;;;;;;0.80;0.80;;;26.60;99.90;;;;;;4999082;28;20702;-81
2021/07/06 06:38:37;;;;;;;2.67;1.40;;;26.80;99.90;;;;;;4997949;28;20453;-82
2021/07/06 06:41:02;;;;;;;1.00;0.90;;;27.00;99.90;;;;;;4998793;28;20258;-82
2021/07/06 06:43:28;;;;;;;2.20;1.00;;;27.40;99.90;;;;;;4998446;28;20175;-82
2021/07/06 06:45:53;;;;;;;1.13;0.90;;;27.60;99.90;;;;;;4998466;28;20186;-82
2021/07/06 06:48:19;;;;;;;4.30;1.10;;;27.50;99.90;;;;;;4999091;28;20186;-82
2021/07/06 06:50:45;;;;;;;1.13;0.80;;;27.60;99.90;;;;;;4996629;28;20191;-82
2021/07/06 06:53:10;;;;;;;1.20;0.90;;;27.70;99.90;;;;;;4980162;28;20179;-82
2021/07/06 06:55:36;;;;;;;0.73;0.60;;;27.90;99.90;;;;;;4997718;28;20245;-80
2021/07/06 06:58:04;;;;;;;1.23;0.97;;;27.90;99.90;;;;;;4980727;28;20290;-82
2021/07/06 07:00:32;;;;;;;1.43;0.60;;;28.10;99.90;;;;;;4981886;28;20557;-82
2021/07/06 07:02:58;;;;;;;0.87;0.60;;;28.20;99.90;;;;;;4993179;28;20433;-80
2021/07/06 07:05:26;;;;;;;0.63;0.63;;;28.40;99.90;;;;;;4997850;28;20982;-82
2021/07/06 07:07:57;;;;;;;2.90;0.70;;;28.80;99.90;;;;;;4979814;28;20183;-82
2021/07/06 07:10:22;;;;;;;1.57;0.80;;;28.80;99.90;;;;;;4979750;28;20434;-82
2021/07/06 07:12:49;;;;;;;1.40;0.73;;;28.60;99.90;;;;;;4997278;28;20521;-82
2021/07/06 07:15:14;;;;;;;0.83;0.73;;;28.50;99.90;;;;;;4979837;28;20648;-82
2021/07/06 07:17:40;;;;;;;2.00;0.90;;;28.80;99.90;;;;;;4980195;28;20476;-82
2021/07/06 07:20:09;;;;;;;0.70;0.70;;;28.90;99.90;;;;;;4979649;28;20681;-82
2021/07/06 07:22:35;;;;;;;2.07;0.90;;;28.60;99.90;;;;;;4977011;28;20634;-78
2021/07/06 07:25:03;;;;;;;2.00;0.70;;;28.50;99.90;;;;;;4980149;28;20414;-82
2021/07/06 07:27:31;;;;;;;3.70;0.97;;;28.70;99.90;;;;;;4998530;28;20781;-80
2021/07/06 07:29:57;;;;;;;0.80;0.70;;;28.70;99.90;;;;;;4977604;28;20430;-80
2021/07/06 07:32:23;;;;;;;0.60;0.60;;;28.80;99.90;;;;;;4996119;28;20971;-82
2021/07/06 07:34:49;;;;;;;4.10;0.90;;;29.20;99.90;;;;;;4980948;28;20188;-81
2021/07/06 07:37:16;;;;;;;0.80;0.80;;;29.40;99.90;;;;;;4978664;28;20474;-82
2021/07/06 07:39:43;;;;;;;3.90;0.87;;;29.70;99.90;;;;;;4995025;28;20303;-82
2021/07/06 07:42:09;;;;;;;1.20;0.87;;;29.80;99.90;;;;;;4996498;28;20451;-81
2021/07/06 07:44:34;;;;;;;0.60;0.50;;;29.60;99.90;;;;;;4993902;28;20494;-82
2021/07/06 07:47:00;;;;;;;3.30;0.90;;;29.60;99.90;;;;;;4979100;28;20218;-82
2021/07/06 07:49:26;;;;;;;1.03;0.90;;;29.80;99.90;;;;;;4978264;28;20654;-82
2021/07/06 07:51:52;;;;;;;1.50;0.60;;;29.90;99.90;;;;;;4977806;28;20435;-82
2021/07/06 07:54:17;;;;;;;1.73;0.70;;;30.20;99.90;;;;;;4977827;28;20824;-81
2021/07/06 07:56:43;;;;;;;1.90;0.83;;;30.10;99.90;;;;;;4976197;28;20253;-82
2021/07/06 07:59:11;;;;;;;2.93;1.00;;;29.70;99.90;;;;;;4977027;28;20211;-81
2021/07/06 08:01:38;;;;;;;0.90;0.90;;;29.50;99.90;;;;;;4975816;28;20644;-82
2021/07/06 08:04:04;;;;;;;1.83;0.70;;;28.90;99.90;;;;;;4987962;28;20422;-81
2021/07/06 08:06:29;;;;;;;1.50;0.70;;;28.60;99.90;;;;;;4977855;28;20807;-82
2021/07/06 08:08:55;;;;;;;1.33;0.93;;;28.20;99.90;;;;;;4984170;28;20264;-82
2021/07/06 08:11:22;;;;;;;1.97;0.70;;;27.90;99.90;;;;;;4986247;28;20689;-82
2021/07/06 08:13:48;;;;;;;2.30;0.80;;;27.60;99.90;;;;;;4994654;28;20180;-82
2021/07/06 08:16:13;;;;;;;1.10;0.80;;;27.60;99.90;;;;;;4982523;28;20429;-81
2021/07/06 08:18:39;;;;;;;1.77;1.00;;;27.80;99.90;;;;;;4981479;28;20226;-81
2021/07/06 08:21:05;;;;;;;2.87;0.97;;;28.30;99.90;;;;;;4983264;28;20681;-81
2021/07/06 08:23:31;;;;;;;1.07;0.70;;;28.90;99.90;;;;;;4974682;28;21516;-81
2021/07/06 08:25:56;;;;;;;1.97;0.70;;;29.50;99.90;;;;;;4987574;28;20180;-82
2021/07/06 08:28:22;;;;;;;2.97;0.70;;;30.10;99.90;;;;;;4987971;28;20241;-81
2021/07/06 08:30:49;;;;;;;0.80;0.80;;;30.30;99.90;;;;;;4986713;28;20176;-81
2021/07/06 08:33:14;;;;;;;0.97;0.80;;;30.40;99.90;;;;;;4976314;28;20787;-82
2021/07/06 08:35:40;;;;;;;0.87;0.60;;;30.20;99.90;;;;;;4987163;28;20426;-79
2021/07/06 08:38:06;;;;;;;0.97;0.80;;;30.40;99.90;;;;;;4986930;28;20270;-79
2021/07/06 08:40:32;;;;;;;1.83;0.80;;;30.50;99.90;;;;;;4976962;28;20415;-80
2021/07/06 08:43:01;;;;;;;0.77;0.70;;;30.40;99.90;;;;;;4982122;28;20206;-79
2021/07/06 08:45:27;;;;;;;0.73;0.73;;;30.40;99.90;;;;;;4981681;28;20180;-80
2021/07/06 08:47:54;;;;;;;1.07;0.60;;;30.40;99.90;;;;;;4973478;28;20437;-80
2021/07/06 08:50:20;;;;;;;0.70;0.70;;;30.20;99.90;;;;;;4986637;28;20426;-81
2021/07/06 08:52:46;;;;;;;0.53;0.50;;;30.40;99.90;;;;;;4986140;28;20534;-80
2021/07/06 08:55:14;;;;;;;1.23;0.80;;;30.70;99.90;;;;;;4980269;28;20415;-80
2021/07/06 08:57:41;;;;;;;1.10;0.77;;;31.20;99.90;;;;;;4983344;28;20521;-80
2021/07/06 09:00:08;;;;;;;2.00;0.90;;;31.40;99.90;;;;;;4985477;28;20474;-81
2021/07/06 09:02:34;;;;;;;1.07;0.70;;;31.50;99.90;;;;;;4986000;28;20542;-80
2021/07/06 09:04:59;;;;;;;1.23;1.00;;;31.30;99.90;;;;;;4992513;28;20486;-80
2021/07/06 09:07:40;;;;;;;1.27;0.80;;;31.20;99.90;;;;;;4996116;28;20176;-80
2021/07/06 09:10:13;;;;;;;1.50;0.70;;;30.40;99.90;;;;;;4982988;28;20550;-80
2021/07/06 09:12:39;;;;;;;1.47;0.80;;;29.80;99.90;;;;;;4981189;28;20447;-80
2021/07/06 09:15:38;;;;;;;0.70;0.70;;;29.10;99.90;;;;;;5067026;28;20514;-79
2021/07/06 09:18:16;;;;;;;0.90;0.80;;;28.40;99.90;;;;;;5060840;28;20797;-76
2021/07/06 09:20:59;;;;;;;1.67;0.90;;;27.90;99.90;;;;;;5060431;28;20442;-78
2021/07/06 09:23:33;;;;;;;6.47;1.00;;;27.40;99.90;;;;;;5046601;28;20415;-79
2021/07/06 09:26:25;;;;;;;7.77;1.67;;;26.70;99.90;;;;;;5063321;28;20919;-79
2021/07/06 09:28:54;;;;;;;1.50;1.40;;;25.60;99.90;;;;;;5067925;28;20412;-79
2021/07/06 09:31:35;;;;;;;2.50;1.23;;;24.60;99.90;;;;;;5066249;28;20432;-76
2021/07/06 09:34:07;;;;;;;9.53;1.47;;;24.00;99.90;;;;;;5066114;28;20574;-78
2021/07/06 09:36:54;;;;;;;1.20;0.87;;;23.70;99.90;;;;;;5065997;28;20994;-81
2021/07/06 09:39:25;;;;;;;4.70;0.70;;;23.60;99.90;;;;;;5060621;28;20451;-78
2021/07/06 09:41:59;;;;;;;3.17;0.50;;;23.20;99.90;;;;;;5060581;28;20638;-79
2021/07/06 09:44:27;;;;;;;8.50;0.60;;;23.00;99.90;;;;;;5062696;28;20482;-82
2021/07/06 09:47:16;;;;;;;0.87;0.70;;;23.00;99.90;;;;;;5063471;28;20479;-80
2021/07/06 09:49:54;;;;;;;2.20;0.80;;;22.80;99.90;;;;;;5060391;28;20429;-79
2021/07/06 09:52:21;;;;;;;1.27;0.50;;;22.80;99.90;;;;;;5060794;28;20435;-79
2021/07/06 09:54:52;;;;;;;2.00;0.60;;;22.60;99.90;;;;;;5062714;28;20458;-79
2021/07/06 09:57:30;;;;;;;0.97;0.60;;;22.40;99.90;;;;;;5060863;28;20415;-79
2021/07/06 10:00:11;;;;;;;5.00;0.73;;;22.30;99.90;;;;;;5061402;28;20498;-77
2021/07/06 10:02:38;;;;;;;5.80;1.23;;;22.30;99.90;;;;;;5080029;22;20882;-77
2021/07/06 10:05:10;;;;;;;0.70;0.70;;;22.40;99.90;;;;;;5062323;28;20494;-80
2021/07/06 10:07:38;;;;;;;1.33;0.50;;;22.80;99.90;;;;;;5056379;28;20912;-79
2021/07/06 10:10:08;;;;;;;1.10;0.63;;;23.00;99.90;;;;;;5061968;28;20415;-81
2021/07/06 10:12:36;;;;;;;0.60;0.60;;;23.30;99.90;;;;;;5048791;28;20438;-80
2021/07/06 10:15:05;;;;;;;1.07;0.60;;;23.30;99.90;;;;;;5063659;28;20466;-78
2021/07/06 10:17:30;;;;;;;0.80;0.57;;;23.40;99.90;;;;;;5063293;28;20512;-77
2021/07/06 10:19:57;;;;;;;1.93;0.70;;;23.30;99.90;;;;;;5063434;28;20480;-77
2021/07/06 10:22:23;;;;;;;1.33;0.70;;;23.40;99.90;;;;;;5045745;28;20200;-78
2021/07/06 10:24:49;;;;;;;0.80;0.80;;;23.50;99.90;;;;;;5058497;28;20859;-77
2021/07/06 10:27:20;;;;;;;0.70;0.70;;;23.50;99.90;;;;;;5050326;28;20646;-77
2021/07/06 10:29:46;;;;;;;0.70;0.67;;;23.30;99.90;;;;;;5047970;28;20461;-76
2021/07/06 10:32:38;;;;;;;6.43;0.60;;;23.10;99.90;;;;;;5048785;28;20443;-78
2021/07/06 10:35:08;;;;;;;1.73;0.70;;;22.90;99.90;;;;;;5049086;28;20209;-81
2021/07/06 10:37:34;;;;;;;2.40;0.90;;;23.10;99.90;;;;;;5049595;28;20440;-78
2021/07/06 10:40:42;;;;;;;0.80;0.60;;;23.10;99.90;;;;;;5032812;28;20416;-79
2021/07/06 10:43:07;;;;;;;1.03;0.60;;;23.50;99.90;;;;;;4956980;28;20530;-78
2021/07/06 10:45:34;;;;;;;1.70;0.50;;;23.90;99.90;;;;;;5038149;28;20526;-78
2021/07/06 10:48:00;;;;;;;6.93;0.73;;;24.30;99.90;;;;;;5045214;28;20721;-79
2021/07/06 10:50:31;;;;;;;1.43;0.60;;;24.60;99.90;;;;;;5049930;28;20423;-79
2021/07/06 10:53:17;;;;;;;0.90;0.50;;;24.50;99.90;;;;;;5051348;28;20213;-79
2021/07/06 10:55:45;;;;;;;1.77;0.50;;;24.30;99.90;;;;;;5049253;28;20443;-79
2021/07/06 10:58:11;;;;;;;0.50;0.50;;;24.20;99.90;;;;;;5050922;28;20462;-79
2021/07/06 11:00:44;;;;;;;0.53;0.50;;;24.20;99.90;;;;;;5050111;28;20408;-78
2021/07/06 11:03:18;;;;;;;1.53;0.50;;;24.60;99.90;;;;;;5040868;28;20649;-77
2021/07/06 11:05:44;;;;;;;0.73;0.67;;;24.70;99.90;;;;;;5051192;28;20450;-81
2021/07/06 11:08:41;;;;;;;0.60;0.60;;;24.80;99.90;;;;;;5049721;28;20411;-79
2021/07/06 11:11:07;;;;;;;1.43;0.60;;;24.60;99.90;;;;;;5047295;28;20877;-78
2021/07/06 11:13:33;;;;;;;0.70;0.60;;;24.60;99.90;;;;;;5048018;28;20455;-79
2021/07/06 11:16:01;;;;;;;1.43;0.60;;;24.10;99.90;;;;;;5048996;28;20420;-78
2021/07/06 11:18:41;;;;;;;1.30;0.50;;;24.10;99.90;;;;;;5032277;28;20177;-80
2021/07/06 11:21:31;;;;;;;2.10;0.60;;;24.20;99.90;;;;;;5049696;28;20439;-80
2021/07/06 11:24:11;;;;;;;0.70;0.70;;;24.30;99.90;;;;;;5049788;28;20499;-79
2021/07/06 11:26:43;;;;;;;0.50;0.50;;;24.30;99.90;;;;;;5049167;28;21082;-80
2021/07/06 11:29:09;;;;;;;1.00;0.67;;;24.40;99.90;;;;;;5049812;28;20412;-80
2021/07/06 11:31:34;;;;;;;2.67;0.60;;;24.50;99.90;;;;;;5048843;28;20447;-79
2021/07/06 11:34:04;;;;;;;0.50;0.50;;;24.80;99.90;;;;;;5047467;28;20209;-79
2021/07/06 11:36:30;;;;;;;0.60;0.50;;;24.90;99.90;;;;;;5048090;28;20295;-79
2021/07/06 11:38:57;;;;;;;1.10;0.60;;;25.00;99.90;;;;;;5042934;28;21073;-79
2021/07/06 11:41:26;;;;;;;0.60;0.50;;;25.10;99.90;;;;;;5036815;28;20451;-79
2021/07/06 11:43:51;;;;;;;0.50;0.50;;;24.90;99.90;;;;;;5051557;28;20435;-79
2021/07/06 11:46:19;;;;;;;0.57;0.40;;;25.00;99.90;;;;;;5050801;28;20510;-80
2021/07/06 11:48:48;;;;;;;0.67;0.50;;;25.00;99.90;;;;;;5052119;28;20208;-79
2021/07/06 11:51:17;;;;;;;0.50;0.50;;;24.80;99.90;;;;;;5037264;28;20526;-79
2021/07/06 11:53:52;;;;;;;0.60;0.53;;;24.70;99.90;;;;;;5050955;28;20455;-78
2021/07/06 11:56:25;;;;;;;0.70;0.70;;;24.50;99.90;;;;;;5044962;28;20516;-80
2021/07/06 11:58:51;;;;;;;2.93;0.50;;;24.40;99.90;;;;;;5046974;28;20430;-79
2021/07/06 12:01:17;;;;;;;1.63;0.70;;;24.20;99.90;;;;;;5050899;28;20451;-79
2021/07/06 12:03:43;;;;;;;1.10;0.67;;;24.20;99.90;;;;;;5050154;28;20432;-79
2021/07/06 12:06:15;;;;;;;1.20;0.50;;;24.10;99.90;;;;;;5045886;28;20439;-79
2021/07/06 12:08:41;;;;;;;0.83;0.80;;;23.90;99.90;;;;;;5045162;28;20184;-79
2021/07/06 12:11:14;;;;;;;2.37;0.50;;;23.90;99.90;;;;;;5047851;28;20439;-78
2021/07/06 12:13:40;;;;;;;0.63;0.60;;;23.80;99.90;;;;;;5029893;28;20834;-78
2021/07/06 12:16:11;;;;;;;0.53;0.47;;;23.90;99.90;;;;;;5033672;28;20439;-78
2021/07/06 12:18:48;;;;;;;2.93;0.50;;;24.00;99.90;;;;;;5047354;28;20273;-78
2021/07/06 12:21:53;;;;;;;2.20;0.60;;;24.20;99.90;;;;;;5046956;28;20438;-78
2021/07/06 12:24:22;;;;;;;2.40;0.50;;;24.40;99.90;;;;;;5000312;28;20432;-77
2021/07/06 12:26:50;;;;;;;0.60;0.50;;;24.60;99.90;;;;;;5045228;28;20459;-78
2021/07/06 12:29:36;;;;;;;0.40;0.40;;;24.80;99.90;;;;;;5041431;28;20442;-78
2021/07/06 12:32:11;;;;;;;0.90;0.50;;;24.90;99.90;;;;;;5048900;28;20443;-79
2021/07/06 12:34:38;;;;;;;0.60;0.60;;;24.90;99.90;;;;;;5048342;28;20541;-79
2021/07/06 12:37:04;;;;;;;1.10;0.50;;;24.80;99.90;;;;;;5048510;28;20415;-78
2021/07/06 12:39:32;;;;;;;7.53;0.70;;;24.70;99.90;;;;;;5045480;28;20439;-78
2021/07/06 12:42:14;;;;;;;2.93;0.80;;;24.60;99.90;;;;;;5045789;28;20499;-78
2021/07/06 12:44:43;;;;;;;3.03;0.50;;;24.50;99.90;;;;;;5036770;28;20868;-78
2021/07/06 12:47:24;;;;;;;0.50;0.50;;;24.40;99.90;;;;;;5041896;28;20909;-78
2021/07/06 12:49:50;;;;;;;6.37;0.50;;;24.40;99.90;;;;;;5044004;28;20776;-77
2021/07/06 12:52:16;;;;;;;3.73;0.50;;;24.50;99.90;;;;;;5047671;28;20440;-78
2021/07/06 12:54:43;;;;;;;0.50;0.50;;;24.40;99.90;;;;;;5047397;28;20451;-79
2021/07/06 12:57:12;;;;;;;1.47;0.50;;;24.20;99.90;;;;;;5044387;28;20441;-78
2021/07/06 12:59:38;;;;;;;1.00;0.60;;;24.10;99.90;;;;;;5048446;28;20412;-79
2021/07/06 13:02:21;;;;;;;0.50;0.50;;;24.20;99.90;;;;;;5049078;28;20456;-79
2021/07/06 13:04:57;;;;;;;0.50;0.50;;;24.20;99.90;;;;;;5036740;28;20197;-80
2021/07/06 13:07:25;;;;;;;2.40;0.70;;;24.20;99.90;;;;;;5046262;28;20454;-79
2021/07/06 13:10:05;;;;;;;0.50;0.50;;;24.20;99.90;;;;;;5039312;28;20458;-78
2021/07/06 13:12:31;;;;;;;1.10;0.50;;;24.10;99.90;;;;;;5049932;28;20427;-78
2021/07/06 13:14:57;;;;;;;0.50;0.50;;;23.80;99.90;;;;;;5049906;28;20459;-78
2021/07/06 13:17:24;;;;;;;0.90;0.60;;;23.60;99.90;;;;;;5050070;28;20427;-79
2021/07/06 13:20:09;;;;;;;1.00;0.60;;;23.60;99.90;;;;;;5052947;28;20174;-79
2021/07/06 13:22:36;;;;;;;1.00;0.60;;;23.60;99.90;;;;;;5051338;28;20431;-77
2021/07/06 13:25:07;;;;;;;0.80;0.50;;;23.80;99.90;;;;;;5050897;28;20412;-78
2021/07/06 13:27:33;;;;;;;1.33;0.50;;;23.90;99.90;;;;;;5052272;28;20450;-82
2021/07/06 13:30:06;;;;;;;0.50;0.50;;;24.10;99.90;;;;;;5052259;28;20424;-77
2021/07/06 13:32:41;;;;;;;5.90;0.60;;;24.20;99.90;;;;;;5042017;28;20473;-76
2021/07/06 13:35:08;;;;;;;2.50;0.70;;;24.20;99.90;;;;;;5045939;28;20470;-76
2021/07/06 13:37:34;;;;;;;1.47;0.50;;;24.30;99.90;;;;;;5046425;28;20961;-77
2021/07/06 13:40:00;;;;;;;2.83;0.50;;;24.30;99.90;;;;;;5045137;28;20447;-78
2021/07/06 13:42:25;;;;;;;0.60;0.53;;;24.20;99.90;;;;;;5043442;28;20650;-76
2021/07/06 13:44:51;;;;;;;4.53;0.60;;;24.10;99.90;;;;;;5045719;28;20173;-75
2021/07/06 13:47:17;;;;;;;1.43;0.70;;;24.10;99.90;;;;;;5045485;28;20189;-76
2021/07/06 13:49:42;;;;;;;1.23;0.63;;;24.00;99.90;;;;;;5046237;28;20697;-76
2021/07/06 13:52:09;;;;;;;1.20;0.50;;;23.90;99.90;;;;;;5044288;28;20288;-76
2021/07/06 13:54:36;;;;;;;0.90;0.80;;;23.90;99.90;;;;;;5043188;28;20247;-75
2021/07/06 13:57:05;;;;;;;0.60;0.60;;;23.90;99.90;;;;;;5045944;28;20510;-80
2021/07/06 13:59:31;;;;;;;1.10;0.60;;;23.90;99.90;;;;;;5048098;28;20432;-78
2021/07/06 14:01:57;;;;;;;1.70;0.67;;;24.00;99.90;;;;;;5053376;28;20510;-79
2021/07/06 14:04:22;;;;;;;2.20;0.50;;;23.90;99.90;;;;;;5054864;28;20189;-80
2021/07/06 14:06:49;;;;;;;2.50;0.60;;;24.00;99.90;;;;;;5036509;28;20545;-79
2021/07/06 14:09:16;;;;;;;0.80;0.70;;;24.10;99.90;;;;;;5053487;28;20599;-79
2021/07/06 14:11:41;;;;;;;0.60;0.50;;;24.20;99.90;;;;;;5051219;28;20812;-79
2021/07/06 14:14:07;;;;;;;1.53;0.60;;;24.40;99.90;;;;;;5052037;28;20455;-76
2021/07/06 14:16:33;;;;;;;0.50;0.50;;;24.50;99.90;;;;;;5054093;28;20602;-77
2021/07/06 14:18:58;;;;;;;1.63;0.50;;;24.60;99.90;;;;;;5054612;28;20647;-77
2021/07/06 14:21:24;;;;;;;2.10;0.50;;;24.50;99.90;;;;;;5053296;28;20340;-77
2021/07/06 14:23:49;;;;;;;6.10;0.70;;;24.30;99.90;;;;;;5053782;28;20182;-77
2021/07/06 14:26:15;;;;;;;0.83;0.77;;;24.20;99.90;;;;;;5054383;28;20363;-73
2021/07/06 14:28:44;;;;;;;0.70;0.70;;;24.00;99.90;;;;;;5053818;28;20189;-73
2021/07/06 14:31:10;;;;;;;0.63;0.63;;;24.00;99.90;;;;;;5053857;28;20678;-73
2021/07/06 14:33:35;;;;;;;2.27;0.70;;;23.80;99.90;;;;;;5058787;28;20477;-74
2021/07/06 14:36:01;;;;;;;1.83;0.60;;;23.70;99.90;;;;;;5059754;28;20256;-73
2021/07/06 14:38:27;;;;;;;1.83;0.83;;;23.60;99.90;;;;;;5054008;28;20173;-75
2021/07/06 14:40:52;;;;;;;1.70;0.67;;;23.50;99.90;;;;;;5052766;28;20173;-72
2021/07/06 14:43:18;;;;;;;1.23;0.60;;;23.40;99.90;;;;;;5044747;28;20196;-74
2021/07/06 14:45:43;;;;;;;0.83;0.70;;;23.30;99.90;;;;;;5055024;28;20597;-74
2021/07/06 14:48:09;;;;;;;1.10;0.60;;;23.20;99.90;;;;;;5054421;28;20749;-76
2021/07/06 14:50:34;;;;;;;3.03;0.73;;;23.20;99.90;;;;;;5053608;28;20173;-74
2021/07/06 14:53:00;;;;;;;1.03;0.60;;;23.00;99.90;;;;;;5053100;28;20227;-74
2021/07/06 14:55:26;;;;;;;0.73;0.70;;;23.00;99.90;;;;;;5053418;28;20567;-74
2021/07/06 14:57:53;;;;;;;0.50;0.50;;;22.90;99.90;;;;;;5053405;28;20177;-75
2021/07/06 15:00:18;;;;;;;1.33;1.03;;;22.90;99.90;;;;;;5053581;28;20162;-75
2021/07/06 15:02:44;;;;;;;1.63;0.70;;;22.80;99.90;;;;;;5052771;28;20585;-74
2021/07/06 15:05:10;;;;;;;0.97;0.60;;;22.80;99.90;;;;;;5053661;28;20710;-75
2021/07/06 15:07:35;;;;;;;1.40;0.57;;;22.70;99.90;;;;;;5053215;28;20188;-75
2021/07/06 15:10:02;;;;;;;0.87;0.60;;;22.70;99.90;;;;;;5035378;28;20173;-74
2021/07/06 15:12:27;;;;;;;3.40;0.90;;;22.70;99.90;;;;;;5051028;28;20204;-74
2021/07/06 15:14:53;;;;;;;2.30;0.93;;;22.70;99.90;;;;;;5052298;28;20451;-74
2021/07/06 15:17:19;;;;;;;2.57;0.80;;;22.70;99.90;;;;;;5035195;28;20209;-74
2021/07/06 15:19:45;;;;;;;1.33;0.63;;;22.60;99.90;;;;;;5052674;28;20227;-75
2021/07/06 15:22:10;;;;;;;1.27;0.80;;;22.50;99.90;;;;;;5052833;28;20566;-74
2021/07/06 15:24:36;;;;;;;1.40;0.90;;;22.40;99.90;;;;;;5052367;28;20177;-74
2021/07/06 15:27:02;;;;;;;4.50;0.70;;;22.40;99.90;;;;;;5052730;28;20239;-75
2021/07/06 15:29:28;;;;;;;3.70;0.77;;;22.30;99.90;;;;;;5052615;28;20647;-74
2021/07/06 15:31:55;;;;;;;4.83;0.70;;;22.20;99.90;;;;;;5034778;28;20448;-75
2021/07/06 15:34:20;;;;;;;1.63;0.70;;;22.10;99.90;;;;;;5052308;28;20455;-75
2021/07/06 15:36:47;;;;;;;2.60;0.70;;;22.10;99.90;;;;;;5052312;28;20705;-74
2021/07/06 15:39:13;;;;;;;5.93;1.03;;;22.00;99.90;;;;;;5052481;28;20201;-75
2021/07/06 15:41:39;;;;;;;1.27;1.00;;;21.90;99.90;;;;;;5052090;28;20424;-74
2021/07/06 15:44:05;;;;;;;1.87;0.90;;;21.90;99.90;;;;;;5052052;28;20419;-75
2021/07/06 15:46:31;;;;;;;2.57;0.83;;;21.80;99.90;;;;;;5052637;28;20415;-75
2021/07/06 15:48:56;;;;;;;2.00;1.20;;;21.80;99.90;;;;;;5034513;28;20416;-74
2021/07/06 15:51:22;;;;;;;1.27;1.07;;;21.70;99.90;;;;;;5052283;28;20196;-74
2021/07/06 15:53:47;;;;;;;2.40;1.00;;;21.60;99.90;;;;;;5051858;28;20201;-74
2021/07/06 15:56:13;;;;;;;2.03;0.70;;;21.50;99.90;;;;;;5034380;28;20264;-73
2021/07/06 15:58:38;;;;;;;1.33;0.80;;;21.50;99.90;;;;;;5051891;28;20174;-73
2021/07/06 16:01:05;;;;;;;1.03;0.90;;;21.40;99.90;;;;;;5017836;28;20189;-74
2021/07/06 16:03:31;;;;;;;1.60;0.97;;;21.30;99.90;;;;;;5033807;28;20224;-73
2021/07/06 16:05:56;;;;;;;0.80;0.80;;;21.30;99.90;;;;;;5052176;28;20415;-75
2021/07/06 16:08:22;;;;;;;1.90;1.00;;;21.30;99.90;;;;;;5034282;28;20180;-76
2021/07/06 16:10:48;;;;;;;3.30;1.60;;;21.30;99.90;;;;;;5033706;28;20412;-74
2021/07/06 16:13:13;;;;;;;2.20;1.13;;;21.20;99.90;;;;;;5032277;28;20639;-74
2021/07/06 16:15:39;;;;;;;1.30;1.20;;;21.10;99.90;;;;;;5051624;28;20169;-78
2021/07/06 16:18:08;;;;;;;1.60;1.50;;;21.10;99.90;;;;;;5035462;28;20222;-79
2021/07/06 16:20:35;;;;;;;2.27;1.50;;;21.00;99.90;;;;;;5034368;28;20268;-77
2021/07/06 16:23:02;;;;;;;0.97;0.97;;;20.80;99.90;;;;;;5034833;28;20613;-78
2021/07/06 16:25:27;;;;;;;1.73;1.47;;;20.60;99.90;;;;;;5035091;28;20412;-78
2021/07/06 16:27:56;;;;;;;5.30;1.97;;;20.50;99.90;;;;;;5034461;28;20984;-78
2021/07/06 16:30:23;;;;;;;1.50;1.40;;;20.50;99.90;;;;;;5036012;28;20177;-78
2021/07/06 16:32:50;;;;;;;1.57;1.40;;;20.50;99.90;;;;;;5036642;28;20432;-78
2021/07/06 16:35:16;;;;;;;2.70;1.30;;;20.50;99.90;;;;;;5036183;28;20814;-78
2021/07/06 16:37:48;;;;;;;1.00;1.00;;;20.50;99.90;;;;;;5034244;28;20526;-78
2021/07/06 16:40:15;;;;;;;1.70;1.60;;;20.50;99.90;;;;;;5034107;28;20427;-78
2021/07/06 16:42:42;;;;;;;1.73;1.13;;;20.60;99.90;;;;;;5034603;28;20801;-78
2021/07/06 16:45:09;;;;;;;5.83;1.00;;;20.60;99.90;;;;;;5034911;28;20427;-78
2021/07/06 16:47:35;;;;;;;2.30;1.03;;;20.70;99.90;;;;;;5036034;28;20438;-78
2021/07/06 16:50:00;;;;;;;0.80;0.80;;;20.70;99.90;;;;;;5035293;28;20542;-78
2021/07/06 17:59:29;;;;;;;1.90;1.80;;;20.10;99.90;;;;;;4885061;29;20435;-79
2021/07/06 18:04:41;;;;;;;1.53;1.43;;;20.10;99.90;;;;;;5055723;28;20418;-78
2021/07/06 18:07:07;;;;;;;1.07;1.07;;;20.00;99.90;;;;;;5056161;28;20424;-79
2021/07/06 18:09:36;;;;;;;2.90;1.60;;;20.00;99.90;;;;;;5059014;28;20196;-80
2021/07/06 18:12:05;;;;;;;2.73;1.50;;;19.90;99.90;;;;;;5057829;28;20197;-79
2021/07/06 18:14:31;;;;;;;1.20;1.10;;;19.90;99.90;;;;;;5054392;28;20455;-78
2021/07/06 18:16:56;;;;;;;1.03;1.00;;;19.90;99.90;;;;;;5057046;28;20770;-79
2021/07/06 18:19:22;;;;;;;0.90;0.90;;;19.80;99.90;;;;;;5038020;28;20173;-79
2021/07/06 18:21:47;;;;;;;1.00;0.80;;;19.70;99.90;;;;;;5055621;28;20203;-79
2021/07/06 18:24:13;;;;;;;1.73;1.30;;;19.60;99.90;;;;;;5057586;28;20634;-80
2021/07/06 18:26:39;;;;;;;0.97;0.97;;;19.60;99.90;;;;;;5056811;28;20255;-80
2021/07/06 18:29:04;;;;;;;0.97;0.80;;;19.50;99.90;;;;;;5055848;28;20177;-80
2021/07/06 18:31:30;;;;;;;2.93;1.20;;;19.30;99.90;;;;;;5055564;28;20203;-79
2021/07/06 18:33:58;;;;;;;1.10;0.90;;;19.30;99.90;;;;;;5056267;28;20228;-80